Time;durP1;ratioP1;P1;durP2;ratioP2;P2;SDS_P1;SDS_P2;PMS_P1;PMS_P2;Temp;Humidity;BMP_temperature;BMP_pressure;BME280_temperature;BME280_humidity;BME280_pressure;Samples;Min_cycle;Max_cycle;Signal;HPM_P1;HPM_P2
2021/12/06 00:01:33;;;;;;;31.88;10.13;;;;;;;1.77;77.29;95877.50;5052572;28;20056;-75
2021/12/06 00:04:06;;;;;;;29.15;9.45;;;;;;;1.77;77.56;95877.50;5050762;28;20080;-76
2021/12/06 00:06:37;;;;;;;16.88;8.00;;;;;;;1.82;78.28;95880.47;5050566;28;20045;-76
2021/12/06 00:09:08;;;;;;;35.22;10.38;;;;;;;1.84;77.49;95883.72;5050318;28;20040;-75
2021/12/06 00:11:36;;;;;;;70.93;14.02;;;;;;;1.81;77.27;95881.41;5050722;28;20041;-75
2021/12/06 00:14:05;;;;;;;60.03;11.73;;;;;;;1.74;76.31;95888.91;5050783;28;20079;-74
2021/12/06 00:16:33;;;;;;;31.25;12.52;;;;;;;1.65;76.46;95889.75;5050203;28;20055;-76
2021/12/06 00:19:02;;;;;;;31.48;11.50;;;;;;;1.60;77.36;95881.69;5052186;28;20045;-75
2021/12/06 00:21:29;;;;;;;14.43;9.77;;;;;;;1.67;78.78;95887.84;5052542;28;20053;-75
2021/12/06 00:23:57;;;;;;;40.10;12.30;;;;;;;1.76;78.54;95892.13;5052551;28;20049;-75
2021/12/06 00:26:25;;;;;;;67.85;12.10;;;;;;;1.77;77.57;95898.06;5052288;28;20056;-75
2021/12/06 00:28:57;;;;;;;40.03;11.07;;;;;;;1.71;77.24;95899.47;5052517;28;20045;-75
2021/12/06 00:31:31;;;;;;;23.35;9.88;;;;;;;1.71;77.31;95904.63;5052188;28;20052;-75
2021/12/06 00:34:03;;;;;;;33.75;10.10;;;;;;;1.69;77.47;95900.59;5052436;28;20057;-75
2021/12/06 00:36:32;;;;;;;41.92;9.45;;;;;;;1.65;77.54;95908.56;5052195;28;20048;-75
2021/12/06 00:39:01;;;;;;;24.60;7.88;;;;;;;1.59;76.89;95909.13;5052277;28;20053;-75
2021/12/06 00:41:29;;;;;;;19.60;8.02;;;;;;;1.52;76.76;95909.84;5052240;28;20049;-75
2021/12/06 00:43:58;;;;;;;16.02;7.95;;;;;;;1.46;77.23;95910.41;5052240;28;20052;-76
2021/12/06 00:46:28;;;;;;;22.33;7.72;;;;;;;1.42;77.54;95912.44;5051918;28;20056;-75
2021/12/06 00:48:56;;;;;;;12.52;6.40;;;;;;;1.45;78.44;95917.31;5052169;28;20095;-76
2021/12/06 00:51:23;;;;;;;34.53;7.05;;;;;;;1.52;78.23;95918.38;5052003;28;20049;-76
2021/12/06 00:53:51;;;;;;;19.63;6.78;;;;;;;1.56;78.11;95921.47;5052028;28;20446;-75
2021/12/06 00:56:19;;;;;;;11.98;6.43;;;;;;;1.57;77.74;95928.22;5051706;28;20507;-75
2021/12/06 00:58:46;;;;;;;12.27;5.95;;;;;;;1.60;78.51;95926.19;5052382;28;20103;-75
2021/12/06 01:01:14;;;;;;;12.25;6.95;;;;;;;1.71;79.65;95926.97;5052285;28;20416;-75
2021/12/06 01:03:44;;;;;;;9.70;6.72;;;;;;;1.80;80.25;95933.81;5052265;28;20106;-75
2021/12/06 01:06:13;;;;;;;7.38;5.35;;;;;;;1.88;80.30;95941.63;5051838;28;20052;-75
2021/12/06 01:08:41;;;;;;;7.78;5.68;;;;;;;1.93;79.54;95946.31;5052053;28;20055;-76
2021/12/06 01:11:11;;;;;;;10.20;6.80;;;;;;;1.96;78.28;95943.47;5052181;28;20044;-76
2021/12/06 01:13:39;;;;;;;11.02;6.70;;;;;;;1.97;78.53;95948.47;5052283;28;20059;-75
2021/12/06 01:16:07;;;;;;;9.93;6.68;;;;;;;2.04;79.19;95948.69;5051620;28;20053;-75
2021/12/06 01:18:36;;;;;;;8.43;6.03;;;;;;;2.10;78.94;95950.69;5051781;28;20056;-75
2021/12/06 01:21:15;;;;;;;7.63;5.72;;;;;;;2.14;79.54;95951.19;5053414;28;20056;-75
2021/12/06 01:23:51;;;;;;;7.97;5.80;;;;;;;2.14;78.99;95961.50;5056001;28;20056;-76
2021/12/06 01:26:55;;;;;;;10.10;6.00;;;;;;;2.06;77.56;95960.47;5055536;28;20045;-75
2021/12/06 01:32:17;;;;;;;10.75;6.15;;;;;;;1.92;76.93;95967.84;5048171;28;20041;-75
2021/12/06 01:40:19;;;;;;;14.68;6.55;;;;;;;1.31;76.04;95964.03;5055389;28;20064;-75
2021/12/06 01:42:47;;;;;;;13.85;6.13;;;;;;;1.11;76.15;95971.78;5055803;28;20056;-75
2021/12/06 01:45:15;;;;;;;9.27;5.90;;;;;;;1.00;77.05;95974.50;5055360;28;20049;-75
2021/12/06 01:47:43;;;;;;;9.20;5.07;;;;;;;0.94;76.94;95975.03;5054881;28;20048;-75
2021/12/06 01:50:14;;;;;;;7.57;5.03;;;;;;;0.87;76.88;95981.69;5055172;28;20049;-75
2021/12/06 01:52:45;;;;;;;6.68;4.65;;;;;;;0.82;77.04;95985.47;5054921;28;20053;-75
2021/12/06 01:55:17;;;;;;;6.45;4.57;;;;;;;0.82;76.90;95988.03;5054918;28;20053;-76
2021/12/06 01:57:44;;;;;;;8.02;4.32;;;;;;;0.77;76.57;95986.84;5054816;28;20053;-75
2021/12/06 02:00:16;;;;;;;6.43;4.18;;;;;;;0.71;76.83;95980.47;5054885;28;20049;-75
2021/12/06 02:02:44;;;;;;;7.13;4.60;;;;;;;0.68;76.82;95982.50;5054976;28;20056;-75
2021/12/06 02:05:12;;;;;;;5.65;3.90;;;;;;;0.65;76.92;95981.00;5054744;28;20698;-76
2021/12/06 02:07:40;;;;;;;6.28;4.28;;;;;;;0.68;76.81;95988.47;5054974;28;20476;-75
2021/12/06 02:10:10;;;;;;;4.07;3.17;;;;;;;0.73;77.17;95988.84;5054861;28;20449;-75
2021/12/06 02:12:38;;;;;;;6.05;3.95;;;;;;;0.77;76.87;95982.50;5054845;28;20053;-75
2021/12/06 02:15:18;;;;;;;7.00;3.83;;;;;;;0.79;76.83;95990.88;5054568;28;20399;-75
2021/12/06 02:17:55;;;;;;;4.55;3.42;;;;;;;0.81;76.70;95978.72;5054372;28;20049;-75
2021/12/06 02:20:26;;;;;;;4.32;3.25;;;;;;;0.84;76.93;95992.25;5054882;28;20055;-75
2021/12/06 02:22:56;;;;;;;5.57;3.95;;;;;;;0.84;76.78;95987.09;5054641;28;20430;-76
2021/12/06 02:25:25;;;;;;;5.10;3.95;;;;;;;0.83;76.78;95991.41;5054534;28;20052;-76
2021/12/06 02:27:53;;;;;;;5.70;3.90;;;;;;;0.83;76.89;95996.53;5054271;28;20490;-75
2021/12/06 02:30:22;;;;;;;4.78;3.53;;;;;;;0.84;77.15;95997.38;5055210;28;20060;-75
2021/12/06 02:32:51;;;;;;;4.85;3.65;;;;;;;0.88;76.79;96002.09;5054401;28;20063;-75
2021/12/06 02:35:22;;;;;;;6.63;4.43;;;;;;;0.91;76.95;96001.00;5054740;28;20434;-76
2021/12/06 02:37:52;;;;;;;6.35;4.45;;;;;;;0.93;76.90;96006.81;5054394;28;20049;-75
2021/12/06 02:40:23;;;;;;;7.10;4.68;;;;;;;0.98;77.63;96010.63;5054477;28;20060;-75
2021/12/06 02:42:50;;;;;;;7.63;5.53;;;;;;;1.06;77.04;96007.34;5054430;28;20063;-76
2021/12/06 02:45:21;;;;;;;9.38;5.97;;;;;;;1.14;77.36;96010.06;5054153;28;20052;-75
2021/12/06 02:47:53;;;;;;;8.75;6.05;;;;;;;1.21;77.42;96000.84;5053516;28;20049;-75
2021/12/06 02:50:23;;;;;;;9.82;6.53;;;;;;;1.22;76.17;96005.03;5054271;28;20049;-74
2021/12/06 02:52:51;;;;;;;10.55;6.25;;;;;;;1.19;76.09;96013.00;5053919;28;20052;-75
2021/12/06 02:55:30;;;;;;;9.32;6.45;;;;;;;1.13;76.16;96005.84;5064084;28;20044;-75
2021/12/06 02:58:12;;;;;;;9.77;6.30;;;;;;;1.12;75.69;96011.94;5078180;28;20045;-75
2021/12/06 03:00:40;;;;;;;8.05;5.97;;;;;;;1.13;76.56;96005.03;5067087;28;20106;-76
2021/12/06 03:03:09;;;;;;;8.23;6.45;;;;;;;1.14;76.16;96012.63;5054658;28;20464;-75
2021/12/06 03:05:37;;;;;;;10.88;6.75;;;;;;;1.07;76.04;96018.44;5053925;28;20045;-75
2021/12/06 03:08:05;;;;;;;9.88;6.60;;;;;;;1.01;75.80;96020.59;5075863;28;20063;-75
2021/12/06 03:10:33;;;;;;;8.00;6.07;;;;;;;1.02;76.38;96026.53;5067851;28;20076;-76
2021/12/06 03:13:03;;;;;;;9.27;6.35;;;;;;;1.10;77.63;96024.13;5053673;28;20049;-75
2021/12/06 03:15:30;;;;;;;7.90;6.43;;;;;;;1.20;78.30;96022.34;5053563;28;20446;-75
2021/12/06 03:17:58;;;;;;;10.88;6.70;;;;;;;1.31;78.22;96031.66;5053093;28;20045;-76
2021/12/06 03:20:26;;;;;;;9.90;6.80;;;;;;;1.32;76.73;96033.28;5053751;28;20056;-76
2021/12/06 03:22:53;;;;;;;9.20;6.20;;;;;;;1.26;75.99;96043.28;5053684;28;20049;-75
2021/12/06 03:25:21;;;;;;;9.48;6.32;;;;;;;1.26;76.99;96036.38;5053602;28;20075;-76
2021/12/06 03:27:49;;;;;;;11.70;6.60;;;;;;;1.28;76.71;96036.25;5052825;28;20048;-75
2021/12/06 03:30:18;;;;;;;12.80;7.10;;;;;;;1.23;75.78;96049.53;5053564;28;20049;-76
2021/12/06 03:32:45;;;;;;;11.00;7.10;;;;;;;1.19;76.31;96041.25;5053209;28;20052;-75
2021/12/06 03:35:13;;;;;;;10.73;6.82;;;;;;;1.24;77.87;96048.56;5053163;28;20499;-75
2021/12/06 03:37:41;;;;;;;9.77;6.53;;;;;;;1.32;77.90;96050.44;5052955;28;20057;-75
2021/12/06 03:40:10;;;;;;;9.60;6.68;;;;;;;1.41;77.54;96052.19;5053263;28;20052;-75
2021/12/06 03:42:38;;;;;;;10.40;7.30;;;;;;;1.41;75.99;96049.63;5052978;28;20044;-75
2021/12/06 03:45:07;;;;;;;11.75;7.38;;;;;;;1.33;75.67;96046.91;5052856;28;20057;-75
2021/12/06 03:47:36;;;;;;;11.20;7.63;;;;;;;1.22;75.42;96064.13;5052812;28;20048;-75
2021/12/06 03:50:07;;;;;;;13.43;7.35;;;;;;;1.12;75.33;96068.47;5053063;28;20067;-75
2021/12/06 03:52:36;;;;;;;10.05;6.88;;;;;;;1.06;75.83;96069.00;5053019;28;20049;-75
2021/12/06 03:55:05;;;;;;;11.73;7.45;;;;;;;0.98;75.97;96066.28;5053079;28;20418;-75
2021/12/06 03:57:33;;;;;;;14.38;7.53;;;;;;;0.93;76.08;96068.47;5052504;28;20056;-75
2021/12/06 04:00:00;;;;;;;13.45;7.57;;;;;;;0.88;76.37;96070.63;5053251;28;20048;-75
2021/12/06 04:02:31;;;;;;;16.73;8.88;;;;;;;0.80;75.97;96084.91;5053020;28;20056;-75
2021/12/06 04:05:00;;;;;;;15.20;8.68;;;;;;;0.71;76.30;96085.72;5052899;28;20072;-76
2021/12/06 04:07:28;;;;;;;12.18;7.45;;;;;;;0.65;76.55;96086.25;5052251;28;20525;-76
2021/12/06 04:09:56;;;;;;;16.42;8.43;;;;;;;0.63;76.72;96095.03;5074130;22;20056;-77
2021/12/06 04:12:24;;;;;;;13.25;7.40;;;;;;;0.59;76.89;96091.91;5053181;28;20049;-77
2021/12/06 04:14:51;;;;;;;11.55;7.22;;;;;;;0.60;76.98;96096.13;5053182;28;20045;-78
2021/12/06 04:17:19;;;;;;;12.25;7.35;;;;;;;0.68;77.38;96103.13;5052940;28;20127;-78
2021/12/06 04:19:47;;;;;;;13.35;7.82;;;;;;;0.71;77.10;96103.69;5052734;28;20056;-78
2021/12/06 04:22:16;;;;;;;12.40;7.38;;;;;;;0.72;76.70;96096.81;5053048;28;20049;-77
2021/12/06 04:24:44;;;;;;;13.18;8.10;;;;;;;0.71;76.55;96097.75;5052175;28;20494;-76
2021/12/06 04:27:15;;;;;;;12.48;7.88;;;;;;;0.69;77.07;96105.59;5051595;28;20067;-78
2021/12/06 04:29:44;;;;;;;10.43;7.13;;;;;;;0.73;77.14;96104.38;5052216;28;20045;-76
2021/12/06 04:32:12;;;;;;;11.88;7.57;;;;;;;0.84;78.22;96107.78;5052409;28;20052;-77
2021/12/06 04:34:40;;;;;;;12.23;8.52;;;;;;;0.98;78.60;96115.06;5052194;28;20045;-80
2021/12/06 04:37:08;;;;;;;12.75;8.32;;;;;;;1.13;79.55;96110.38;5052070;28;20072;-78
2021/12/06 04:39:37;;;;;;;14.50;8.75;;;;;;;1.25;79.80;96117.00;5052405;28;20045;-78
2021/12/06 04:42:05;;;;;;;13.13;7.28;;;;;;;1.32;78.90;96114.69;5052278;28;20052;-78
2021/12/06 04:44:33;;;;;;;12.38;7.85;;;;;;;1.37;79.21;96120.22;5052117;28;20053;-78
2021/12/06 04:47:02;;;;;;;12.60;8.65;;;;;;;1.47;79.65;96126.19;5052219;28;20056;-78
2021/12/06 04:49:29;;;;;;;13.38;7.60;;;;;;;1.53;78.90;96128.22;5052258;28;20061;-79
2021/12/06 04:51:59;;;;;;;12.25;8.27;;;;;;;1.52;77.31;96133.47;5052834;28;20060;-78
2021/12/06 04:54:31;;;;;;;12.35;8.20;;;;;;;1.45;76.88;96125.50;5053364;28;20056;-78
2021/12/06 04:57:04;;;;;;;12.57;7.88;;;;;;;1.44;77.82;96134.97;5056337;28;20053;-78
2021/12/06 04:59:36;;;;;;;11.77;6.93;;;;;;;1.49;78.80;96137.13;5056282;28;20053;-77
2021/12/06 05:02:08;;;;;;;11.07;7.53;;;;;;;1.57;79.05;96144.16;5056157;28;20506;-78
2021/12/06 05:04:38;;;;;;;9.35;7.15;;;;;;;1.61;79.02;96150.66;5056384;28;20426;-77
2021/12/06 05:07:10;;;;;;;11.50;7.47;;;;;;;1.67;79.36;96155.25;5056167;28;20072;-78
2021/12/06 05:09:41;;;;;;;10.88;7.30;;;;;;;1.74;79.66;96161.44;5055890;28;20049;-78
2021/12/06 05:12:14;;;;;;;11.23;7.25;;;;;;;1.81;80.00;96167.66;5056381;28;20056;-77
2021/12/06 05:14:41;;;;;;;;;;;;;;;1.86;80.26;96164.69;5057445;28;20434;-78
2021/12/06 05:17:09;;;;;;;10.75;7.22;;;;;;;1.88;78.96;96161.97;5056707;28;19921;-78
2021/12/06 05:19:38;;;;;;;10.88;8.07;;;;;;;1.85;77.80;96165.63;5056572;28;20052;-77
2021/12/06 05:22:06;;;;;;;11.43;7.65;;;;;;;1.77;77.57;96174.06;5056355;28;20052;-77
2021/12/06 05:24:34;;;;;;;10.77;7.10;;;;;;;1.73;77.93;96170.13;5056257;28;20045;-77
2021/12/06 05:27:02;;;;;;;11.68;7.80;;;;;;;1.70;77.61;96175.53;5055506;28;20053;-78
2021/12/06 05:29:31;;;;;;;9.30;7.00;;;;;;;1.68;76.65;96184.34;5055966;28;20048;-78
2021/12/06 05:32:00;;;;;;;9.45;6.70;;;;;;;1.65;76.91;96186.22;5056402;28;20541;-77
2021/12/06 05:34:34;;;;;;;11.32;7.35;;;;;;;1.67;77.65;96201.53;5056193;28;20053;-77
2021/12/06 05:37:01;;;;;;;10.43;7.55;;;;;;;1.71;77.90;96196.94;5055816;28;20055;-78
2021/12/06 05:39:30;;;;;;;11.27;7.80;;;;;;;1.82;79.27;96204.50;5056002;28;20049;-76
2021/12/06 05:41:59;;;;;;;12.55;8.60;;;;;;;1.91;79.16;96202.88;5055465;28;20124;-78
2021/12/06 05:44:27;;;;;;;12.02;8.38;;;;;;;1.91;77.71;96208.81;5055472;28;20056;-77
2021/12/06 05:46:57;;;;;;;14.30;9.02;;;;;;;1.80;75.91;96211.53;5055415;28;20103;-77
2021/12/06 05:49:25;;;;;;;12.30;7.85;;;;;;;1.69;75.89;96225.34;5055429;28;20421;-78
2021/12/06 05:51:53;;;;;;;12.55;8.93;;;;;;;1.62;77.01;96225.06;5055839;28;20048;-77
2021/12/06 05:54:21;;;;;;;11.57;7.72;;;;;;;1.62;76.84;96231.97;5055273;28;20053;-78
2021/12/06 05:56:49;;;;;;;13.63;9.35;;;;;;;1.56;76.20;96237.66;5055218;28;20430;-78
2021/12/06 05:59:17;;;;;;;15.32;9.80;;;;;;;1.50;76.23;96241.56;5055401;28;20053;-78
2021/12/06 06:01:47;;;;;;;13.40;8.50;;;;;;;1.47;76.60;96236.69;5055571;28;20462;-78
2021/12/06 06:04:16;;;;;;;14.50;9.20;;;;;;;1.46;76.88;96247.91;5052718;28;20128;-77
2021/12/06 06:06:44;;;;;;;12.63;8.60;;;;;;;1.49;76.72;96250.22;5051821;28;20048;-77
2021/12/06 06:09:12;;;;;;;23.10;9.45;;;;;;;1.49;76.57;96255.38;5054567;28;20419;-77
2021/12/06 06:11:41;;;;;;;13.77;9.57;;;;;;;1.57;78.28;96255.50;5055247;28;20064;-78
2021/12/06 06:14:09;;;;;;;13.25;8.38;;;;;;;1.68;78.00;96253.75;5054733;28;20052;-80
2021/12/06 06:16:47;;;;;;;12.80;8.57;;;;;;;1.74;78.38;96260.94;5054796;28;20123;-77
2021/12/06 06:19:18;;;;;;;15.43;9.85;;;;;;;1.83;78.92;96262.69;5055246;28;20061;-79
2021/12/06 06:21:46;;;;;;;13.38;9.18;;;;;;;1.91;79.26;96272.31;5055298;28;20041;-78
2021/12/06 06:24:14;;;;;;;13.75;9.27;;;;;;;1.96;78.66;96272.72;5052354;28;20517;-78
2021/12/06 06:26:41;;;;;;;14.05;9.88;;;;;;;1.99;78.93;96273.25;5062063;28;20057;-77
2021/12/06 06:29:10;;;;;;;13.73;9.02;;;;;;;2.05;79.51;96277.84;5063427;28;20056;-77
2021/12/06 06:31:39;;;;;;;15.20;10.20;;;;;;;2.12;79.59;96287.59;5064935;28;20045;-77
2021/12/06 06:34:07;;;;;;;13.77;9.73;;;;;;;2.15;79.00;96288.13;5074717;28;20051;-77
2021/12/06 06:36:37;;;;;;;14.23;9.50;;;;;;;2.14;77.35;96291.63;5074222;28;20053;-78
2021/12/06 06:39:06;;;;;;;14.27;10.10;;;;;;;2.09;78.03;96295.59;5061038;28;20053;-77
2021/12/06 06:41:35;;;;;;;13.10;9.20;;;;;;;2.10;78.80;96294.63;5054100;28;20053;-77
2021/12/06 06:44:04;;;;;;;12.23;8.63;;;;;;;2.14;78.27;96290.84;5054797;28;20068;-78
2021/12/06 06:46:32;;;;;;;13.90;8.88;;;;;;;2.14;77.92;96295.97;5054219;28;20053;-77
2021/12/06 06:49:00;;;;;;;13.07;8.65;;;;;;;2.11;78.05;96294.50;5054449;28;20132;-77
2021/12/06 06:51:28;;;;;;;10.60;7.93;;;;;;;2.10;77.79;96302.34;5052677;28;20088;-76
2021/12/06 06:53:58;;;;;;;10.38;8.18;;;;;;;2.06;77.43;96305.19;5052775;28;20048;-77
2021/12/06 06:56:25;;;;;;;12.57;8.60;;;;;;;2.08;78.09;96305.06;5053631;28;20053;-75
2021/12/06 06:58:53;;;;;;;12.70;8.65;;;;;;;2.15;78.21;96308.72;5053248;28;20053;-75
2021/12/06 07:01:21;;;;;;;11.00;8.27;;;;;;;2.22;78.33;96308.97;5053500;28;20450;-75
2021/12/06 07:03:53;;;;;;;13.30;8.75;;;;;;;2.22;78.55;96309.78;5053431;28;20136;-74
2021/12/06 07:06:21;;;;;;;12.98;9.10;;;;;;;2.18;78.10;96312.78;5052144;28;21359;-74
2021/12/06 07:08:49;;;;;;;12.15;8.32;;;;;;;2.14;77.61;96316.56;5056508;28;20044;-75
2021/12/06 07:11:18;;;;;;;12.43;8.35;;;;;;;2.16;77.79;96322.38;5073285;28;20048;-76
2021/12/06 07:13:47;;;;;;;15.60;9.85;;;;;;;2.14;76.76;96319.13;5058181;28;20061;-75
2021/12/06 07:16:17;;;;;;;13.20;8.50;;;;;;;2.09;76.68;96316.16;5033114;28;20060;-74
2021/12/06 07:18:45;;;;;;;10.93;7.88;;;;;;;2.08;77.93;96322.25;5035992;28;20052;-74
2021/12/06 07:21:13;;;;;;;13.95;10.13;;;;;;;2.14;78.89;96326.84;5053193;28;20059;-75
2021/12/06 07:23:42;;;;;;;14.38;9.95;;;;;;;2.19;78.90;96329.84;5052889;28;20051;-74
2021/12/06 07:26:12;;;;;;;13.10;8.70;;;;;;;2.20;78.59;96336.63;5052697;28;20052;-75
2021/12/06 07:28:43;;;;;;;15.10;9.55;;;;;;;2.25;79.09;96340.41;5052794;28;20056;-75
2021/12/06 07:31:14;;;;;;;12.75;8.52;;;;;;;2.31;79.60;96338.22;5053120;28;20041;-77
2021/12/06 07:33:43;;;;;;;10.60;7.78;;;;;;;2.33;78.37;96339.72;5053181;28;20052;-77
2021/12/06 07:36:16;;;;;;;11.90;8.82;;;;;;;2.33;78.68;96342.28;5052885;28;20045;-77
2021/12/06 07:38:44;;;;;;;12.05;8.52;;;;;;;2.33;78.95;96342.28;5052794;28;20487;-76
2021/12/06 07:41:14;;;;;;;13.93;9.48;;;;;;;2.36;79.03;96348.94;5052432;28;20525;-75
2021/12/06 07:43:43;;;;;;;13.90;9.65;;;;;;;2.36;79.29;96352.34;5052092;28;20076;-75
2021/12/06 07:46:12;;;;;;;15.75;9.57;;;;;;;2.38;79.29;96359.91;5052590;28;20053;-77
2021/12/06 07:48:40;;;;;;;15.23;9.68;;;;;;;2.41;79.84;96370.75;5054068;28;20081;-76
2021/12/06 07:51:08;;;;;;;14.77;9.43;;;;;;;2.43;79.67;96361.13;5053328;28;20521;-77
2021/12/06 07:53:38;;;;;;;15.38;9.35;;;;;;;2.45;80.01;96359.22;5053952;28;20049;-76
2021/12/06 07:56:07;;;;;;;14.38;9.50;;;;;;;2.48;79.97;96366.66;5053532;28;20049;-73
2021/12/06 07:58:34;;;;;;;15.85;9.77;;;;;;;2.51;79.62;96359.63;5052249;28;20503;-74
2021/12/06 08:01:04;;;;;;;15.90;9.07;;;;;;;2.43;77.72;96363.69;5052217;28;20049;-77
2021/12/06 08:03:32;;;;;;;13.75;8.77;;;;;;;2.34;77.33;96364.53;5051955;28;20088;-76
2021/12/06 08:06:00;;;;;;;14.13;9.10;;;;;;;2.27;77.29;96363.41;5053093;28;20049;-75
2021/12/06 08:08:30;;;;;;;17.02;9.32;;;;;;;2.22;78.45;96361.25;5052528;28;20061;-73
2021/12/06 08:11:02;;;;;;;12.50;8.30;;;;;;;2.25;78.86;96371.31;5052181;28;20045;-76
2021/12/06 08:13:32;;;;;;;15.80;9.93;;;;;;;2.20;77.17;96380.34;5051777;28;20053;-75
2021/12/06 08:16:05;;;;;;;13.50;8.93;;;;;;;2.11;77.95;96384.56;5051368;28;20514;-77
2021/12/06 08:18:33;;;;;;;13.45;8.95;;;;;;;2.15;78.95;96387.69;5050586;28;20049;-77
2021/12/06 08:21:01;;;;;;;14.13;9.85;;;;;;;2.24;79.60;96397.16;5051933;28;20041;-76
2021/12/06 08:23:29;;;;;;;19.38;10.80;;;;;;;2.31;79.14;96402.59;5052166;28;20061;-74
2021/12/06 08:25:58;;;;;;;15.10;10.30;;;;;;;2.32;78.38;96397.31;5058913;28;20049;-74
2021/12/06 08:28:28;;;;;;;14.10;9.05;;;;;;;2.28;76.89;96393.38;5054427;28;20053;-75
2021/12/06 08:30:56;;;;;;;13.88;9.07;;;;;;;2.29;77.76;96391.59;5051954;28;20036;-75
2021/12/06 08:33:25;;;;;;;15.25;8.68;;;;;;;2.34;78.58;96395.41;5052076;28;20048;-76
2021/12/06 08:35:53;;;;;;;12.40;8.43;;;;;;;2.35;77.57;96402.19;5051713;28;20509;-76
2021/12/06 08:38:22;;;;;;;13.13;7.82;;;;;;;2.33;77.47;96401.50;5051794;28;20434;-76
2021/12/06 08:40:53;;;;;;;10.65;7.75;;;;;;;2.36;78.85;96406.38;5054405;28;20071;-76
2021/12/06 08:43:21;;;;;;;12.75;8.35;;;;;;;2.38;77.92;96412.19;5071696;28;20055;-75
2021/12/06 08:45:52;;;;;;;11.90;7.80;;;;;;;2.36;77.94;96411.53;5056665;28;20045;-74
2021/12/06 08:48:22;;;;;;;10.68;7.45;;;;;;;2.38;77.35;96412.19;5051881;28;20402;-75
2021/12/06 08:50:52;;;;;;;11.23;6.88;;;;;;;2.41;77.78;96401.63;5051494;28;20041;-76
2021/12/06 08:53:19;;;;;;;10.25;6.70;;;;;;;2.46;78.55;96406.38;5051434;28;20049;-75
2021/12/06 08:55:47;;;;;;;9.20;6.47;;;;;;;2.50;78.12;96414.66;5051516;28;20422;-74
2021/12/06 08:58:15;;;;;;;8.40;5.70;;;;;;;2.48;77.30;96418.16;5051917;28;20044;-79
2021/12/06 09:00:43;;;;;;;9.13;5.95;;;;;;;2.45;76.60;96420.22;5051934;28;20419;-77
2021/12/06 09:03:11;;;;;;;8.45;5.85;;;;;;;2.42;76.67;96428.19;5050937;28;20514;-74
2021/12/06 09:05:43;;;;;;;12.00;6.70;;;;;;;2.36;76.81;96429.56;5051894;28;20425;-76
2021/12/06 09:08:12;;;;;;;11.18;7.22;;;;;;;2.32;76.72;96433.34;5052099;28;20049;-79
2021/12/06 09:10:42;;;;;;;10.27;6.35;;;;;;;2.34;77.25;96434.03;5053449;28;20383;-79
2021/12/06 09:13:09;;;;;;;10.48;6.82;;;;;;;2.37;77.79;96436.31;5052932;28;20049;-79
2021/12/06 09:15:37;;;;;;;11.93;6.95;;;;;;;2.40;78.47;96436.03;5052054;28;20053;-77
2021/12/06 09:18:05;;;;;;;11.70;6.93;;;;;;;2.44;77.61;96439.16;5049553;28;20060;-77
2021/12/06 09:20:36;;;;;;;9.38;6.25;;;;;;;2.43;76.84;96438.34;5052979;28;20048;-78
2021/12/06 09:23:06;;;;;;;9.73;6.40;;;;;;;2.45;77.43;96433.09;5052629;28;20056;-77
2021/12/06 09:25:37;;;;;;;23.17;9.05;;;;;;;2.53;78.78;96434.97;5052531;28;20060;-78
2021/12/06 09:28:05;;;;;;;19.05;8.88;;;;;;;2.54;78.23;96428.88;5050537;28;20053;-76
2021/12/06 09:30:36;;;;;;;12.90;7.15;;;;;;;2.58;79.21;96443.09;5051478;28;20052;-77
2021/12/06 09:33:07;;;;;;;12.50;7.65;;;;;;;2.60;78.00;96442.03;5051363;28;20141;-76
2021/12/06 09:35:36;;;;;;;15.95;8.38;;;;;;;2.59;78.50;96439.56;5051276;28;20053;-79
2021/12/06 09:38:05;;;;;;;13.00;7.78;;;;;;;2.62;78.15;96447.03;5051386;28;20059;-79
2021/12/06 09:40:37;;;;;;;15.27;9.02;;;;;;;2.63;78.30;96443.50;5051694;28;20049;-77
2021/12/06 09:43:07;;;;;;;15.93;8.77;;;;;;;2.64;78.84;96452.84;5055141;28;20064;-77
2021/12/06 09:45:35;;;;;;;13.23;8.50;;;;;;;2.66;78.74;96448.38;5054635;28;20053;-76
2021/12/06 09:48:04;;;;;;;15.50;9.05;;;;;;;2.65;78.25;96455.31;5071225;28;20078;-79
2021/12/06 09:50:36;;;;;;;13.65;8.50;;;;;;;2.68;78.93;96460.16;5075425;28;20059;-76
2021/12/06 09:53:08;;;;;;;12.50;8.20;;;;;;;2.72;79.04;96453.00;5066500;28;20045;-73
2021/12/06 09:55:37;;;;;;;17.02;9.52;;;;;;;2.75;78.48;96463.00;5054962;28;20056;-75
2021/12/06 09:58:06;;;;;;;13.90;8.90;;;;;;;2.76;78.54;96462.06;5054353;28;20067;-73
2021/12/06 10:00:41;;;;;;;17.15;10.48;;;;;;;2.81;79.34;96459.91;5055105;28;20044;-77
2021/12/06 10:03:09;;;;;;;17.98;10.38;;;;;;;2.82;78.38;96460.69;5054845;28;20052;-75
2021/12/06 10:05:39;;;;;;;23.20;12.35;;;;;;;2.75;77.23;96452.72;5054371;28;20103;-76
2021/12/06 10:08:07;;;;;;;21.85;12.52;;;;;;;2.73;78.00;96446.06;5054272;28;20049;-75
2021/12/06 10:10:37;;;;;;;18.70;11.52;;;;;;;2.76;78.88;96443.25;5089819;23;20048;-78
2021/12/06 10:13:04;;;;;;;20.55;11.27;;;;;;;2.75;77.68;96444.97;5075326;28;20053;-74
2021/12/06 10:15:33;;;;;;;24.45;12.63;;;;;;;2.75;78.35;96442.41;5075375;28;20489;-74
2021/12/06 10:18:02;;;;;;;21.27;12.23;;;;;;;2.79;78.83;96445.53;5074765;28;20052;-73
2021/12/06 10:20:31;;;;;;;22.63;12.25;;;;;;;2.78;78.36;96447.31;5091202;28;20544;-74
2021/12/06 10:23:00;;;;;;;21.20;12.00;;;;;;;2.77;78.52;96437.13;5095663;28;20051;-76
2021/12/06 10:25:36;;;;;;;23.30;13.27;;;;;;;2.75;76.89;96437.25;5095494;28;20055;-75
2021/12/06 10:28:14;;;;;;;24.65;12.75;;;;;;;2.66;77.10;96430.34;5095482;28;20098;-76
2021/12/06 10:30:45;;;;;;;25.80;12.23;;;;;;;2.63;77.48;96430.63;5095059;28;20056;-75
2021/12/06 10:33:16;;;;;;;20.70;12.18;;;;;;;2.65;77.84;96433.88;5095855;28;20048;-75
2021/12/06 10:35:46;;;;;;;16.35;10.02;;;;;;;2.68;78.67;96433.59;5094758;28;20048;-74
2021/12/06 10:38:19;;;;;;;17.50;10.05;;;;;;;2.75;79.60;96439.03;5095392;28;20060;-75
2021/12/06 10:40:47;;;;;;;19.50;11.65;;;;;;;2.81;79.78;96439.28;5097725;28;20052;-76
2021/12/06 10:43:16;;;;;;;17.25;10.45;;;;;;;2.88;79.87;96430.06;5119822;28;20528;-78
2021/12/06 10:45:48;;;;;;;19.42;11.20;;;;;;;2.92;79.13;96432.38;5122240;28;20523;-77
2021/12/06 10:48:18;;;;;;;18.25;10.98;;;;;;;2.92;78.04;96424.63;5131600;28;20079;-76
2021/12/06 10:50:48;;;;;;;18.75;11.60;;;;;;;2.92;78.72;96432.38;5131873;28;20055;-76
2021/12/06 10:53:18;;;;;;;18.85;11.85;;;;;;;2.91;78.30;96441.88;5122032;28;20040;-75
2021/12/06 10:55:49;;;;;;;19.67;11.13;;;;;;;2.93;78.59;96441.72;5116474;28;20051;-74
2021/12/06 10:58:20;;;;;;;20.95;11.60;;;;;;;2.96;78.69;96438.88;5115883;28;20051;-75
2021/12/06 11:00:51;;;;;;;20.30;12.18;;;;;;;3.03;79.23;96437.38;5115634;28;20113;-75
2021/12/06 11:03:26;;;;;;;19.45;12.40;;;;;;;3.06;79.20;96430.19;5115775;28;20047;-76
2021/12/06 11:05:59;;;;;;;21.13;12.85;;;;;;;3.08;78.68;96428.28;5111835;28;20091;-75
2021/12/06 11:08:27;;;;;;;18.80;11.60;;;;;;;3.13;79.29;96427.03;5094885;28;20062;-75
2021/12/06 11:10:58;;;;;;;20.17;12.52;;;;;;;3.17;78.89;96424.06;5094563;28;20048;-75
2021/12/06 11:13:29;;;;;;;19.23;11.75;;;;;;;3.18;79.04;96423.09;5094559;28;20056;-74
2021/12/06 11:16:05;;;;;;;20.77;11.82;;;;;;;3.19;77.88;96422.16;5094527;28;20048;-75
2021/12/06 11:18:39;;;;;;;20.77;12.75;;;;;;;3.20;78.02;96423.75;5096623;28;20106;-77
2021/12/06 11:21:20;;;;;;;17.13;11.77;;;;;;;3.22;77.58;96416.69;5093985;28;20052;-75
2021/12/06 11:24:11;;;;;;;19.20;11.70;;;;;;;3.24;77.55;96417.38;5093586;28;20051;-74
2021/12/06 11:26:41;;;;;;;16.02;10.50;;;;;;;3.27;77.95;96414.50;5093577;28;20056;-74
2021/12/06 11:29:17;;;;;;;19.15;12.18;;;;;;;3.34;78.31;96411.38;5093394;28;20048;-74
2021/12/06 11:32:01;;;;;;;17.13;10.82;;;;;;;3.41;79.60;96412.41;5093011;28;20486;-75
2021/12/06 11:34:33;;;;;;;17.80;11.18;;;;;;;3.49;79.31;96408.19;5091550;28;20048;-75
2021/12/06 11:37:01;;;;;;;18.38;11.32;;;;;;;3.65;79.22;96405.00;5091290;28;20052;-75
2021/12/06 11:39:29;;;;;;;42.47;17.13;;;;;;;3.83;79.42;96402.47;5091384;28;20044;-75
2021/12/06 11:41:58;;;;;;;60.08;24.27;;;;;;;3.99;78.38;96403.59;5091168;28;20048;-75
2021/12/06 11:44:31;;;;;;;29.55;15.35;;;;;;;4.08;78.22;96407.88;5091182;28;20051;-75
2021/12/06 11:47:07;;;;;;;22.73;14.40;;;;;;;4.15;78.98;96402.94;5091276;28;20425;-74
2021/12/06 11:49:40;;;;;;;21.48;12.30;;;;;;;4.20;79.00;96411.06;5092990;28;20478;-75
2021/12/06 11:52:12;;;;;;;16.48;10.30;;;;;;;4.19;78.84;96409.44;5092915;28;20517;-74
2021/12/06 11:54:44;;;;;;;17.37;10.50;;;;;;;4.15;78.47;96408.91;5093248;28;20064;-75